createdAt,value
2018-06-17T00:01:54.338Z,38.20
2018-06-17T00:04:24.518Z,33.07
2018-06-17T00:06:54.882Z,34.60
2018-06-17T00:09:25.317Z,37.60
2018-06-17T00:11:55.472Z,35.50
2018-06-17T00:14:25.857Z,32.40
2018-06-17T00:16:56.021Z,33.93
2018-06-17T00:19:26.728Z,31.40
2018-06-17T00:21:56.791Z,37.37
2018-06-17T00:24:27.273Z,34.20
2018-06-17T00:26:57.186Z,35.53
2018-06-17T00:29:27.499Z,33.53
2018-06-17T00:31:57.730Z,34.33
2018-06-17T00:34:27.950Z,30.37
2018-06-17T00:36:58.234Z,37.13
2018-06-17T00:39:28.595Z,46.73
2018-06-17T00:41:58.766Z,41.67
2018-06-17T00:44:29.043Z,43.47
2018-06-17T00:46:59.212Z,39.97
2018-06-17T00:49:29.597Z,44.85
2018-06-17T00:51:59.754Z,46.77
2018-06-17T00:54:30.228Z,47.45
2018-06-17T00:57:17.343Z,49.40
2018-06-17T00:59:47.679Z,45.35
2018-06-17T01:02:17.853Z,45.05
2018-06-17T01:04:48.235Z,42.45
2018-06-17T01:07:18.449Z,47.17
2018-06-17T01:09:48.783Z,37.55
2018-06-17T01:12:18.754Z,41.05
2018-06-17T01:14:49.027Z,41.13
2018-06-17T01:17:19.348Z,40.70
2018-06-17T01:19:49.771Z,45.20
2018-06-17T01:22:20.198Z,39.92
2018-06-17T01:24:50.407Z,41.35
2018-06-17T01:27:20.742Z,43.90
2018-06-17T01:29:50.950Z,42.03
2018-06-17T01:32:21.408Z,42.00
2018-06-17T01:34:51.934Z,36.68
2018-06-17T01:37:22.360Z,44.05
2018-06-17T01:39:52.519Z,39.48
2018-06-17T01:42:23.021Z,40.05
2018-06-17T01:44:53.205Z,40.67
2018-06-17T01:47:23.450Z,40.92
2018-06-17T01:49:53.643Z,41.20
2018-06-17T01:52:24.107Z,46.08
2018-06-17T01:54:54.267Z,48.78
2018-06-17T01:57:24.650Z,43.20
2018-06-17T01:59:54.815Z,36.95
2018-06-17T02:02:25.301Z,39.42
2018-06-17T02:05:00.622Z,42.70
2018-06-17T02:07:36.094Z,41.95
2018-06-17T02:10:11.483Z,43.45
2018-06-17T02:12:41.963Z,44.50
2018-06-17T02:15:11.898Z,46.85
2018-06-17T02:17:41.830Z,44.73
2018-06-17T02:20:12.167Z,39.27
2018-06-17T02:22:42.670Z,34.48
2018-06-17T02:25:12.838Z,40.40
2018-06-17T02:27:43.292Z,42.38
2018-06-17T02:30:13.631Z,36.42
2018-06-17T02:32:44.263Z,43.45
2018-06-17T02:35:14.510Z,36.08
2018-06-17T02:37:44.955Z,41.18
2018-06-17T02:40:15.336Z,39.90
2018-06-17T02:42:45.507Z,39.65
2018-06-17T02:45:21.194Z,41.23
2018-06-17T02:47:56.950Z,45.78
2018-06-17T02:50:32.466Z,42.03
2018-06-17T02:53:08.048Z,49.25
2018-06-17T02:55:38.211Z,41.88
2018-06-17T02:58:08.601Z,42.62
2018-06-17T03:00:38.838Z,47.93
2018-06-17T03:03:09.247Z,43.80
2018-06-17T03:05:39.419Z,48.40
2018-06-17T03:08:09.808Z,48.85
2018-06-17T03:10:40.340Z,51.20
2018-06-17T03:13:10.524Z,55.63
2018-06-17T03:15:40.982Z,54.63
2018-06-17T03:18:11.144Z,51.55
2018-06-17T03:20:41.555Z,52.15
2018-06-17T03:23:11.770Z,55.80
2018-06-17T03:25:47.311Z,56.33
2018-06-17T03:28:22.509Z,59.10
2018-06-17T03:30:58.082Z,52.50
2018-06-17T03:33:33.399Z,54.03
2018-06-17T03:36:11.436Z,49.95
2018-06-17T03:38:42.357Z,46.48
2018-06-17T03:41:13.210Z,47.43
2018-06-17T03:43:43.403Z,41.00
2018-06-17T03:46:13.757Z,53.23
2018-06-17T03:48:43.928Z,47.33
2018-06-17T03:51:14.299Z,51.05
2018-06-17T03:53:44.470Z,42.83
2018-06-17T03:56:14.782Z,35.70
2018-06-17T03:58:44.950Z,37.93
2018-06-17T04:01:15.297Z,34.23
2018-06-17T04:03:45.498Z,38.08
2018-06-17T04:06:15.845Z,39.05
2018-06-17T04:08:45.846Z,35.10
2018-06-17T04:11:16.060Z,40.05
2018-06-17T04:13:46.252Z,39.90
2018-06-17T04:16:16.633Z,37.20
2018-06-17T04:18:46.815Z,37.75
2018-06-17T04:21:17.279Z,41.88
2018-06-17T04:23:47.261Z,40.85
2018-06-17T04:26:17.423Z,38.30
2018-06-17T04:28:47.744Z,36.87
2018-06-17T04:31:17.918Z,54.80
2018-06-17T04:33:48.271Z,47.83
2018-06-17T04:36:18.637Z,33.60
2018-06-17T04:38:48.846Z,36.73
2018-06-17T04:41:18.671Z,44.37
2018-06-17T04:43:49.595Z,42.40
2018-06-17T04:46:19.533Z,34.77
2018-06-17T04:48:49.837Z,40.03
2018-06-17T04:51:20.014Z,40.70
2018-06-17T04:53:50.375Z,36.97
2018-06-17T04:56:20.540Z,38.30
2018-06-17T04:58:50.928Z,30.27
2018-06-17T05:01:21.094Z,35.40
2018-06-17T05:03:51.475Z,30.20
2018-06-17T05:06:21.634Z,27.33
2018-06-17T05:08:51.939Z,23.07
2018-06-17T05:11:22.103Z,27.00
2018-06-17T05:13:52.402Z,25.47
2018-06-17T05:16:22.577Z,22.87
2018-06-17T05:18:53.028Z,26.77
2018-06-17T05:21:23.207Z,23.10
2018-06-17T05:23:53.680Z,27.47
2018-06-17T05:26:23.842Z,28.20
2018-06-17T05:28:54.332Z,26.43
2018-06-17T05:31:24.511Z,23.27
2018-06-17T05:33:54.983Z,24.57
2018-06-17T05:36:25.206Z,22.43
2018-06-17T05:38:55.260Z,21.70
2018-06-17T05:41:32.309Z,23.83
2018-06-17T05:44:02.519Z,23.90
2018-06-17T05:46:33.281Z,23.97
2018-06-17T05:49:03.459Z,19.50
2018-06-17T05:51:34.449Z,24.57
2018-06-17T05:54:04.621Z,20.73
2018-06-17T05:56:35.076Z,24.53
2018-06-17T05:59:05.221Z,20.73
2018-06-17T06:01:35.329Z,19.20
2018-06-17T06:04:05.485Z,21.20
2018-06-17T06:06:35.883Z,19.17
2018-06-17T06:09:08.956Z,14.80
2018-06-17T06:11:39.427Z,22.87
2018-06-17T06:14:09.619Z,24.43
2018-06-17T06:16:40.032Z,16.97
2018-06-17T06:19:10.194Z,17.80
2018-06-17T06:21:40.608Z,19.53
2018-06-17T06:24:10.779Z,15.90
2018-06-17T06:26:41.159Z,22.27
2018-06-17T06:29:11.345Z,18.30
2018-06-17T06:31:41.793Z,16.60
2018-06-17T06:34:11.974Z,14.23
2018-06-17T06:36:42.506Z,16.60
2018-06-17T06:39:12.830Z,16.13
2018-06-17T06:41:43.291Z,12.07
2018-06-17T06:44:13.230Z,12.80
2018-06-17T06:46:43.515Z,15.47
2018-06-17T06:49:13.955Z,18.43
2018-06-17T06:51:44.168Z,11.63
2018-06-17T06:54:14.597Z,13.73
2018-06-17T06:56:44.837Z,17.53
2018-06-17T06:59:15.243Z,14.77
2018-06-17T07:02:02.698Z,12.30
2018-06-17T07:04:49.931Z,12.27
2018-06-17T07:07:37.248Z,11.93
2018-06-17T07:10:22.071Z,12.17
2018-06-17T07:12:52.641Z,15.83
2018-06-17T07:15:39.923Z,8.93
2018-06-17T07:18:39.655Z,15.37
2018-06-17T07:21:10.483Z,9.07
2018-06-17T07:23:40.942Z,19.27
2018-06-17T07:26:34.432Z,12.40
2018-06-17T07:29:22.839Z,6.23
2018-06-17T07:31:53.146Z,10.60
2018-06-17T07:57:31.350Z,13.50
2018-06-17T08:02:31.222Z,13.90
2018-06-17T08:05:01.693Z,10.50
2018-06-17T08:07:31.886Z,10.40
2018-06-17T08:10:02.344Z,15.80
2018-06-17T08:22:30.507Z,9.53
2018-06-17T08:27:30.366Z,8.25
2018-06-17T08:30:00.746Z,13.50
2018-06-17T08:32:30.923Z,10.05
2018-06-17T08:35:01.390Z,11.60
2018-06-17T08:37:31.683Z,12.70
2018-06-17T08:40:02.045Z,14.20
2018-06-17T08:42:32.209Z,11.05
2018-06-17T08:45:02.594Z,6.40
2018-06-17T08:47:32.744Z,11.23
2018-06-17T08:50:03.146Z,15.93
2018-06-17T08:52:33.070Z,7.20
2018-06-17T08:55:03.374Z,5.30
2018-06-17T09:00:03.182Z,5.75
2018-06-17T09:02:33.551Z,8.60
2018-06-17T09:05:03.711Z,7.30
2018-06-17T09:07:34.184Z,9.70
2018-06-17T09:10:04.365Z,8.30
2018-06-17T09:12:34.730Z,12.40
2018-06-17T09:15:04.931Z,9.00
2018-06-17T09:17:35.374Z,5.80
2018-06-17T09:20:05.550Z,10.50
2018-06-17T09:25:05.418Z,8.05
2018-06-17T09:40:02.889Z,14.85
2018-06-17T09:42:34.138Z,8.50
2018-06-17T09:45:04.294Z,7.65
2018-06-17T09:47:34.638Z,15.10
2018-06-17T09:55:03.710Z,9.70
2018-06-17T10:02:32.905Z,11.90
2018-06-17T10:05:03.178Z,6.80
2018-06-17T10:07:33.322Z,13.30
2018-06-17T10:11:10.734Z,7.60
2018-06-17T10:16:13.160Z,8.60
2018-06-17T10:18:43.582Z,11.25
2018-06-17T10:21:14.085Z,12.30
2018-06-17T10:23:43.973Z,8.10
2018-06-17T10:31:13.287Z,8.10
2018-06-17T10:33:43.517Z,8.50
2018-06-17T10:36:14.138Z,7.20
2018-06-17T10:38:44.332Z,7.60
2018-06-17T10:41:14.793Z,9.30
2018-06-17T10:43:44.971Z,13.50
2018-06-17T10:46:15.234Z,16.10
2018-06-17T10:48:45.394Z,17.33
2018-06-17T10:51:15.900Z,11.60
2018-06-17T10:53:46.042Z,6.83
2018-06-17T10:56:16.474Z,7.25
2018-06-17T10:58:46.638Z,11.07
2018-06-17T11:01:17.034Z,9.23
2018-06-17T11:03:47.147Z,10.33
2018-06-17T11:06:17.519Z,7.20
2018-06-17T11:08:48.194Z,7.40
2018-06-17T11:11:18.585Z,5.20
2018-06-17T11:16:18.631Z,4.00
2018-06-17T11:18:49.003Z,4.65
2018-06-17T11:21:19.088Z,4.80
2018-06-17T11:23:50.127Z,4.50
2018-06-17T11:26:20.188Z,5.00
2018-06-17T11:28:50.750Z,4.60
2018-06-17T11:31:20.902Z,7.30
2018-06-17T11:36:20.633Z,13.30
2018-06-17T11:41:20.184Z,6.00
2018-06-17T11:58:46.676Z,11.90
2018-06-17T12:06:15.846Z,6.50
2018-06-17T12:13:45.240Z,10.30
2018-06-17T12:21:14.783Z,5.90
2018-06-17T12:23:44.923Z,8.80
2018-06-17T12:26:15.238Z,7.80
2018-06-17T12:31:14.767Z,8.50
2018-06-17T12:38:44.061Z,8.65
2018-06-17T12:41:14.419Z,9.70
2018-06-17T12:43:44.564Z,9.70
2018-06-17T12:46:14.856Z,7.70
2018-06-17T12:48:45.019Z,9.30
2018-06-17T12:51:15.312Z,8.20
2018-06-17T12:53:45.478Z,11.20
2018-06-17T12:56:15.946Z,10.30
2018-06-17T12:58:46.095Z,10.15
2018-06-17T13:01:16.605Z,9.70
2018-06-17T13:03:46.771Z,9.05
2018-06-17T13:06:17.262Z,11.50
2018-06-17T13:08:47.966Z,18.75
2018-06-17T13:11:18.311Z,12.83
2018-06-17T13:13:48.462Z,16.10
2018-06-17T13:26:16.783Z,8.50
2018-06-17T13:28:46.974Z,11.75
2018-06-17T13:36:16.458Z,12.30
2018-06-17T13:38:46.517Z,13.55
2018-06-17T13:46:15.628Z,9.05
2018-06-17T13:48:45.824Z,9.40
2018-06-17T13:51:15.977Z,11.70
2018-06-17T13:53:46.262Z,12.50
2018-06-17T14:01:15.427Z,14.30
2018-06-17T14:06:15.147Z,18.80
2018-06-17T14:08:45.662Z,14.00
2018-06-17T14:16:15.014Z,13.73
2018-06-17T14:21:14.526Z,13.17
2018-06-17T14:23:44.839Z,11.53
2018-06-17T14:26:14.994Z,17.33
2018-06-17T14:28:45.394Z,13.33
2018-06-17T14:31:15.594Z,11.33
2018-06-17T14:33:46.135Z,18.30
2018-06-17T14:36:16.643Z,8.90
2018-06-17T14:38:46.791Z,14.23
2018-06-17T14:41:18.651Z,14.67
2018-06-17T14:43:53.994Z,11.10
2018-06-17T14:46:29.550Z,15.37
2018-06-17T14:49:05.088Z,10.43
2018-06-17T14:51:51.002Z,15.93
2018-06-17T14:54:21.407Z,13.47
2018-06-17T14:56:51.649Z,15.43
2018-06-17T14:59:22.038Z,14.30
2018-06-17T15:01:52.210Z,9.73
2018-06-17T15:04:22.611Z,13.90
2018-06-17T15:06:52.552Z,11.03
2018-06-17T15:09:22.872Z,11.77
2018-06-17T15:11:53.006Z,17.53
2018-06-17T15:14:23.411Z,9.47
2018-06-17T15:16:53.567Z,11.73
2018-06-17T15:19:24.049Z,10.70
2018-06-17T15:21:54.408Z,10.20
2018-06-17T15:24:24.542Z,9.83
2018-06-17T15:26:55.015Z,15.33
2018-06-17T15:29:25.189Z,12.47
2018-06-17T15:32:00.992Z,12.87
2018-06-17T15:34:36.356Z,19.67
2018-06-17T15:37:12.157Z,20.97
2018-06-17T15:39:59.665Z,17.63
2018-06-17T15:42:29.994Z,11.17
2018-06-17T15:45:00.163Z,25.47
2018-06-17T15:47:30.508Z,20.50
2018-06-17T15:50:00.654Z,16.33
2018-06-17T15:52:31.036Z,7.10
2018-06-17T15:55:01.255Z,8.47
2018-06-17T15:57:31.595Z,11.20
2018-06-17T16:00:01.828Z,12.43
2018-06-17T16:02:32.232Z,12.33
2018-06-17T16:05:02.403Z,11.50
2018-06-17T16:07:32.781Z,19.70
2018-06-17T16:10:02.974Z,10.37
2018-06-17T16:12:38.552Z,6.60
2018-06-17T16:15:13.971Z,5.80
2018-06-17T16:18:51.080Z,9.50
2018-06-17T16:21:21.228Z,8.93
2018-06-17T16:23:51.655Z,10.60
2018-06-17T16:26:21.806Z,10.33
2018-06-17T16:28:52.110Z,6.63
2018-06-17T16:31:22.275Z,3.67
2018-06-17T16:33:52.575Z,7.63
2018-06-17T16:36:22.872Z,4.93
2018-06-17T16:38:53.189Z,7.60
2018-06-17T16:41:23.350Z,7.20
2018-06-17T16:43:53.834Z,5.97
2018-06-17T16:46:23.970Z,7.80
2018-06-17T16:48:54.804Z,7.13
2018-06-17T16:51:30.122Z,10.93
2018-06-17T16:54:05.687Z,15.20
2018-06-17T16:56:41.210Z,13.63
2018-06-17T16:59:16.872Z,5.60
2018-06-17T17:01:46.993Z,7.50
2018-06-17T17:04:17.327Z,6.20
2018-06-17T17:06:47.635Z,8.40
2018-06-17T17:09:18.070Z,10.30
2018-06-17T17:11:48.247Z,3.80
2018-06-17T17:14:18.775Z,9.47
2018-06-17T17:16:48.927Z,5.43
2018-06-17T17:19:19.274Z,10.43
2018-06-17T17:21:50.436Z,8.10
2018-06-17T17:24:20.835Z,11.53
2018-06-17T17:26:51.026Z,9.30
2018-06-17T17:29:21.513Z,6.87
2018-06-17T17:31:56.934Z,8.60
2018-06-17T17:34:32.584Z,4.80
2018-06-17T17:37:08.106Z,5.83
2018-06-17T17:39:49.729Z,5.40
2018-06-17T17:42:20.811Z,6.10
2018-06-17T17:44:56.426Z,4.63
2018-06-17T17:47:29.082Z,5.40
2018-06-17T17:49:59.531Z,9.70
2018-06-17T17:52:29.801Z,8.00
2018-06-17T17:55:00.167Z,6.63
2018-06-17T17:57:30.323Z,10.35
2018-06-17T18:00:00.635Z,6.53
2018-06-17T18:02:30.779Z,9.03
2018-06-17T18:05:01.158Z,8.30
2018-06-17T18:07:37.634Z,9.15
2018-06-17T18:10:07.954Z,10.60
2018-06-17T18:12:38.235Z,9.70
2018-06-17T18:15:09.137Z,6.80
2018-06-17T18:17:39.299Z,6.40
2018-06-17T18:20:09.671Z,11.80
2018-06-17T18:22:39.997Z,8.50
2018-06-17T18:25:15.502Z,14.53
2018-06-17T18:27:51.134Z,24.97
2018-06-17T18:30:26.450Z,8.43
2018-06-17T18:33:02.076Z,12.83
2018-06-17T18:35:37.539Z,7.73
2018-06-17T18:38:08.078Z,9.73
2018-06-17T18:40:38.280Z,11.00
2018-06-17T18:43:08.709Z,3.87
2018-06-17T18:45:38.770Z,9.93
2018-06-17T18:48:09.262Z,10.03
2018-06-17T18:50:39.516Z,12.80
2018-06-17T18:53:10.008Z,17.43
2018-06-17T18:55:40.189Z,7.13
2018-06-17T18:58:10.656Z,7.83
2018-06-17T19:00:41.016Z,10.43
2018-06-17T19:03:11.533Z,8.77
2018-06-17T19:05:41.475Z,9.90
2018-06-17T19:08:16.977Z,9.07
2018-06-17T19:10:52.524Z,4.17
2018-06-17T19:13:28.060Z,12.20
2018-06-17T19:16:04.946Z,11.05
2018-06-17T19:18:35.401Z,7.12
2018-06-17T19:21:05.326Z,7.12
2018-06-17T19:23:35.549Z,10.67
2018-06-17T19:26:05.918Z,12.15
2018-06-17T19:28:36.387Z,25.12
2018-06-17T19:31:06.554Z,8.98
2018-06-17T19:33:36.924Z,10.90
2018-06-17T19:36:07.163Z,16.00
2018-06-17T19:38:37.480Z,12.53
2018-06-17T19:41:07.856Z,7.42
2018-06-17T19:43:37.972Z,11.18
2018-06-17T19:46:08.411Z,9.40
2018-06-17T19:48:38.543Z,8.10
2018-06-17T19:51:14.322Z,4.62
2018-06-17T19:53:49.871Z,5.97
2018-06-17T19:56:25.506Z,15.80
2018-06-17T19:59:00.957Z,12.25
2018-06-17T20:01:31.274Z,12.90
2018-06-17T20:04:01.317Z,13.70
2018-06-17T20:06:31.742Z,10.58
2018-06-17T20:09:01.558Z,5.28
2018-06-17T20:11:31.754Z,12.55
2018-06-17T20:14:02.042Z,13.43
2018-06-17T20:16:32.303Z,6.40
2018-06-17T20:19:02.507Z,20.37
2018-06-17T20:21:32.851Z,21.75
2018-06-17T20:24:03.052Z,17.67
2018-06-17T20:26:33.513Z,9.08
2018-06-17T20:29:03.691Z,11.15
2018-06-17T20:31:36.019Z,10.63
2018-06-17T20:34:11.752Z,14.47
2018-06-17T20:36:47.520Z,23.42
2018-06-17T20:39:22.634Z,60.45
2018-06-17T20:41:58.070Z,22.75
2018-06-17T20:44:28.236Z,16.23
2018-06-17T20:46:58.553Z,12.23
2018-06-17T20:49:28.715Z,9.15
2018-06-17T20:51:59.005Z,15.93
2018-06-17T20:54:29.175Z,8.95
2018-06-17T20:56:59.547Z,34.27
2018-06-17T20:59:29.951Z,42.38
2018-06-17T21:01:59.899Z,24.15
2018-06-17T21:04:30.104Z,36.65
2018-06-17T21:07:00.291Z,20.72
2018-06-17T21:09:30.654Z,16.93
2018-06-17T21:12:00.814Z,11.65
2018-06-17T21:14:31.293Z,28.15
2018-06-17T21:17:01.235Z,31.57
2018-06-17T21:19:36.559Z,23.42
2018-06-17T21:22:11.927Z,58.25
2018-06-17T21:24:47.443Z,22.98
2018-06-17T21:27:22.845Z,23.77
2018-06-17T21:29:53.207Z,10.95
2018-06-17T21:32:23.550Z,14.43
2018-06-17T21:34:53.965Z,42.33
2018-06-17T21:37:24.463Z,20.35
2018-06-17T21:39:54.834Z,37.08
2018-06-17T21:42:25.010Z,19.17
2018-06-17T21:44:55.382Z,10.15
2018-06-17T21:47:26.058Z,18.15
2018-06-17T21:49:56.418Z,17.50
2018-06-17T21:52:26.650Z,8.10
2018-06-17T21:54:57.374Z,7.47
2018-06-17T21:57:27.883Z,12.43
2018-06-17T21:59:58.358Z,14.55
2018-06-17T22:02:28.496Z,12.23
2018-06-17T22:04:58.891Z,14.53
2018-06-17T22:07:29.312Z,12.90
2018-06-17T22:10:04.716Z,9.60
2018-06-17T22:13:10.442Z,14.35
2018-06-17T22:15:46.164Z,15.32
2018-06-17T22:18:16.339Z,13.72
2018-06-17T22:20:47.014Z,12.03
2018-06-17T22:23:16.951Z,6.85
2018-06-17T22:25:47.258Z,4.55
2018-06-17T22:28:17.178Z,7.12
2018-06-17T22:30:47.496Z,8.35
2018-06-17T22:33:17.671Z,12.25
2018-06-17T22:35:48.248Z,8.38
2018-06-17T22:38:18.504Z,8.53
2018-06-17T22:40:48.804Z,6.83
2018-06-17T22:43:19.245Z,8.40
2018-06-17T22:45:49.418Z,8.60
2018-06-17T22:48:19.870Z,10.28
2018-06-17T22:50:50.056Z,11.97
2018-06-17T22:53:37.429Z,11.50
2018-06-17T22:56:12.985Z,9.18
2018-06-17T22:58:48.242Z,13.28
2018-06-17T23:03:26.437Z,8.70
2018-06-17T23:06:01.967Z,10.00
2018-06-17T23:08:37.531Z,8.83
2018-06-17T23:11:07.937Z,6.97
2018-06-17T23:13:38.389Z,7.28
2018-06-17T23:16:08.728Z,14.10
2018-06-17T23:18:39.138Z,8.03
2018-06-17T23:21:09.053Z,8.35
2018-06-17T23:23:39.384Z,13.22
2018-06-17T23:26:09.700Z,7.22
2018-06-17T23:28:40.034Z,9.98
2018-06-17T23:31:10.271Z,11.70
2018-06-17T23:33:40.888Z,11.53
2018-06-17T23:36:11.063Z,13.70
2018-06-17T23:38:41.745Z,8.83
2018-06-17T23:41:15.184Z,7.45
2018-06-17T23:43:47.695Z,11.88
2018-06-17T23:46:23.105Z,12.93
2018-06-17T23:48:58.951Z,11.35
2018-06-17T23:51:34.327Z,8.40
2018-06-17T23:54:09.822Z,8.50
2018-06-17T23:56:39.974Z,9.80
2018-06-17T23:59:10.378Z,7.22
